KESC/ESC METAR and TAF weather

Enter ICAO airport designator
Station Type Date Time Source
KESC METAR 2020/04/05 16:56 UTC NOAA

KESC 051656Z AUTO 16007KT 10SM CLR 03/M05 A3023 RMK AO2 SLP251 T00281050


Station Type Date Time Source
KESC Decoded METAR 2020/04/05 16:56 UTC NOAA

Escanaba, MI, United States (KESC) 45-45N 087-02W 187M
Apr 05, 2020 - 12:56 PM EDT / 2020.04.05 1656 UTC
Wind: from the SSE (160 degrees) at 8 MPH (7 KT):0
Visibility: 10 mile(s):0
Sky conditions: clear
Temperature: 37.0 F (2.8 C)
Dew Point: 23.0 F (-5.0 C)
Relative Humidity: 56%
Pressure (altimeter): 30.23 in. Hg (1023 hPa)
ob: KESC 051656Z AUTO 16007KT 10SM CLR 03/M05 A3023 RMK AO2 SLP251 T00281050
cycle: 17

Station Type Date Time Source
KESC TAF UTC NOAA

Error!

Example: see airport list